sensor_id;sensor_type;location;lat;lon;timestamp;temperature;humidity
75105;DHT22;64778;47.314;8.466;2023-02-07T00:00:32;-1.60;83.30
75105;DHT22;64778;47.314;8.466;2023-02-07T00:02:57;-1.70;83.70
75105;DHT22;64778;47.314;8.466;2023-02-07T00:05:27;-1.70;83.70
75105;DHT22;64778;47.314;8.466;2023-02-07T00:07:55;-1.60;83.30
75105;DHT22;64778;47.314;8.466;2023-02-07T00:10:23;-1.70;83.40
75105;DHT22;64778;47.314;8.466;2023-02-07T00:12:49;-1.70;83.80
75105;DHT22;64778;47.314;8.466;2023-02-07T00:15:17;-1.80;83.50
75105;DHT22;64778;47.314;8.466;2023-02-07T00:17:45;-1.70;83.50
75105;DHT22;64778;47.314;8.466;2023-02-07T00:20:13;-1.70;83.40
75105;DHT22;64778;47.314;8.466;2023-02-07T00:22:38;-1.70;82.80
75105;DHT22;64778;47.314;8.466;2023-02-07T00:25:04;-1.80;83.10
75105;DHT22;64778;47.314;8.466;2023-02-07T00:27:30;-1.70;83.10
75105;DHT22;64778;47.314;8.466;2023-02-07T00:29:58;-1.80;83.20
75105;DHT22;64778;47.314;8.466;2023-02-07T00:32:23;-1.80;83.30
75105;DHT22;64778;47.314;8.466;2023-02-07T00:34:49;-1.80;83.10
75105;DHT22;64778;47.314;8.466;2023-02-07T00:37:17;-1.90;83.20
75105;DHT22;64778;47.314;8.466;2023-02-07T00:39:45;-1.80;83.30
75105;DHT22;64778;47.314;8.466;2023-02-07T00:42:11;-1.90;83.30
75105;DHT22;64778;47.314;8.466;2023-02-07T00:44:36;-1.90;83.70
75105;DHT22;64778;47.314;8.466;2023-02-07T00:47:04;-1.90;83.30
75105;DHT22;64778;47.314;8.466;2023-02-07T00:49:30;-1.90;83.30
75105;DHT22;64778;47.314;8.466;2023-02-07T00:51:56;-1.90;83.50
75105;DHT22;64778;47.314;8.466;2023-02-07T00:54:24;-1.90;83.10
75105;DHT22;64778;47.314;8.466;2023-02-07T00:56:50;-2.00;83.20
75105;DHT22;64778;47.314;8.466;2023-02-07T00:59:15;-2.00;83.10
75105;DHT22;64778;47.314;8.466;2023-02-07T01:01:41;-2.00;82.90
75105;DHT22;64778;47.314;8.466;2023-02-07T01:04:07;-2.00;83.40
75105;DHT22;64778;47.314;8.466;2023-02-07T01:06:32;-2.00;83.20
75105;DHT22;64778;47.314;8.466;2023-02-07T01:09:03;-2.10;83.60
75105;DHT22;64778;47.314;8.466;2023-02-07T01:11:29;-2.10;83.50
75105;DHT22;64778;47.314;8.466;2023-02-07T01:13:56;-2.10;83.40
75105;DHT22;64778;47.314;8.466;2023-02-07T01:16:30;-2.10;83.00
75105;DHT22;64778;47.314;8.466;2023-02-07T01:19:02;-2.10;83.10
75105;DHT22;64778;47.314;8.466;2023-02-07T01:21:31;-2.00;82.90
75105;DHT22;64778;47.314;8.466;2023-02-07T01:23:56;-2.00;82.80
75105;DHT22;64778;47.314;8.466;2023-02-07T01:26:23;-2.10;83.00
75105;DHT22;64778;47.314;8.466;2023-02-07T01:28:52;-2.10;82.90
75105;DHT22;64778;47.314;8.466;2023-02-07T01:31:21;-2.10;82.60
75105;DHT22;64778;47.314;8.466;2023-02-07T01:33:51;-2.10;83.00
75105;DHT22;64778;47.314;8.466;2023-02-07T01:36:19;-2.20;83.10
75105;DHT22;64778;47.314;8.466;2023-02-07T01:38:45;-2.20;83.30
75105;DHT22;64778;47.314;8.466;2023-02-07T01:41:14;-2.20;83.40
75105;DHT22;64778;47.314;8.466;2023-02-07T01:46:29;-2.20;83.90
75105;DHT22;64778;47.314;8.466;2023-02-07T01:48:57;-2.20;84.10
75105;DHT22;64778;47.314;8.466;2023-02-07T01:51:28;-2.20;83.40
75105;DHT22;64778;47.314;8.466;2023-02-07T01:54:03;-2.30;83.60
75105;DHT22;64778;47.314;8.466;2023-02-07T01:56:29;-2.20;83.40
75105;DHT22;64778;47.314;8.466;2023-02-07T01:58:56;-2.20;83.40
75105;DHT22;64778;47.314;8.466;2023-02-07T02:01:23;-2.30;83.60
75105;DHT22;64778;47.314;8.466;2023-02-07T02:03:51;-2.30;83.60
75105;DHT22;64778;47.314;8.466;2023-02-07T02:06:20;-2.30;83.40
75105;DHT22;64778;47.314;8.466;2023-02-07T02:08:46;-2.30;83.60
75105;DHT22;64778;47.314;8.466;2023-02-07T02:16:43;-2.30;83.60
75105;DHT22;64778;47.314;8.466;2023-02-07T02:22:46;-2.30;83.70
75105;DHT22;64778;47.314;8.466;2023-02-07T02:30:31;-2.40;84.00
75105;DHT22;64778;47.314;8.466;2023-02-07T02:41:40;-2.40;84.10
75105;DHT22;64778;47.314;8.466;2023-02-07T02:44:17;-2.40;83.70
75105;DHT22;64778;47.314;8.466;2023-02-07T02:46:45;-2.40;83.80
75105;DHT22;64778;47.314;8.466;2023-02-07T02:49:14;-2.40;83.70
75105;DHT22;64778;47.314;8.466;2023-02-07T02:51:42;-2.40;83.90
75105;DHT22;64778;47.314;8.466;2023-02-07T02:54:27;-2.50;83.80
75105;DHT22;64778;47.314;8.466;2023-02-07T03:00:18;-2.50;83.90
75105;DHT22;64778;47.314;8.466;2023-02-07T03:16:15;-2.60;84.50
75105;DHT22;64778;47.314;8.466;2023-02-07T03:19:03;-2.60;84.60
75105;DHT22;64778;47.314;8.466;2023-02-07T03:21:36;-2.70;84.30
75105;DHT22;64778;47.314;8.466;2023-02-07T03:24:11;-2.60;84.80
75105;DHT22;64778;47.314;8.466;2023-02-07T03:26:39;-2.70;85.00
75105;DHT22;64778;47.314;8.466;2023-02-07T03:29:08;-2.70;85.10
75105;DHT22;64778;47.314;8.466;2023-02-07T03:31:37;-2.70;85.00
75105;DHT22;64778;47.314;8.466;2023-02-07T03:34:08;-2.70;85.20
75105;DHT22;64778;47.314;8.466;2023-02-07T03:36:48;-2.70;85.10
75105;DHT22;64778;47.314;8.466;2023-02-07T03:39:21;-2.70;85.10
75105;DHT22;64778;47.314;8.466;2023-02-07T03:42:01;-2.70;85.00
75105;DHT22;64778;47.314;8.466;2023-02-07T03:44:30;-2.80;85.40
75105;DHT22;64778;47.314;8.466;2023-02-07T03:46:57;-2.80;85.60
75105;DHT22;64778;47.314;8.466;2023-02-07T03:49:23;-2.80;85.40
75105;DHT22;64778;47.314;8.466;2023-02-07T03:51:49;-2.80;85.70
75105;DHT22;64778;47.314;8.466;2023-02-07T03:54:18;-2.80;85.70
75105;DHT22;64778;47.314;8.466;2023-02-07T03:56:46;-2.80;85.30
75105;DHT22;64778;47.314;8.466;2023-02-07T03:59:14;-2.80;85.30
75105;DHT22;64778;47.314;8.466;2023-02-07T04:01:41;-2.80;85.60
75105;DHT22;64778;47.314;8.466;2023-02-07T04:04:09;-2.80;85.80
75105;DHT22;64778;47.314;8.466;2023-02-07T04:06:35;-2.80;85.90
75105;DHT22;64778;47.314;8.466;2023-02-07T04:09:00;-2.90;85.90
75105;DHT22;64778;47.314;8.466;2023-02-07T04:11:26;-2.90;86.10
75105;DHT22;64778;47.314;8.466;2023-02-07T04:13:52;-2.90;86.10
75105;DHT22;64778;47.314;8.466;2023-02-07T04:16:17;-2.90;86.10
75105;DHT22;64778;47.314;8.466;2023-02-07T04:18:43;-2.90;86.00
75105;DHT22;64778;47.314;8.466;2023-02-07T04:21:09;-2.90;86.10
75105;DHT22;64778;47.314;8.466;2023-02-07T04:23:36;-2.90;86.40
75105;DHT22;64778;47.314;8.466;2023-02-07T04:26:05;-2.90;86.60
75105;DHT22;64778;47.314;8.466;2023-02-07T04:28:30;-2.90;86.40
75105;DHT22;64778;47.314;8.466;2023-02-07T04:30:56;-2.90;86.40
75105;DHT22;64778;47.314;8.466;2023-02-07T04:33:22;-2.90;86.70
75105;DHT22;64778;47.314;8.466;2023-02-07T04:35:56;-2.90;86.50
75105;DHT22;64778;47.314;8.466;2023-02-07T04:38:22;-2.90;86.70
75105;DHT22;64778;47.314;8.466;2023-02-07T04:40:50;-2.90;86.60
75105;DHT22;64778;47.314;8.466;2023-02-07T04:43:16;-3.00;86.70
75105;DHT22;64778;47.314;8.466;2023-02-07T04:45:44;-3.00;87.10
75105;DHT22;64778;47.314;8.466;2023-02-07T04:48:14;-3.00;86.90
75105;DHT22;64778;47.314;8.466;2023-02-07T04:50:42;-3.00;87.00
75105;DHT22;64778;47.314;8.466;2023-02-07T04:53:09;-3.00;87.30
75105;DHT22;64778;47.314;8.466;2023-02-07T04:55:35;-3.00;87.40
75105;DHT22;64778;47.314;8.466;2023-02-07T04:58:05;-3.00;87.30
75105;DHT22;64778;47.314;8.466;2023-02-07T05:00:31;-3.00;87.30
75105;DHT22;64778;47.314;8.466;2023-02-07T05:02:57;-3.00;87.10
75105;DHT22;64778;47.314;8.466;2023-02-07T05:05:22;-3.00;87.30
75105;DHT22;64778;47.314;8.466;2023-02-07T05:07:48;-3.00;87.00
75105;DHT22;64778;47.314;8.466;2023-02-07T05:10:14;-3.00;87.00
75105;DHT22;64778;47.314;8.466;2023-02-07T05:12:42;-3.00;87.10
75105;DHT22;64778;47.314;8.466;2023-02-07T05:15:08;-3.00;87.30
75105;DHT22;64778;47.314;8.466;2023-02-07T05:17:34;-3.00;87.20
75105;DHT22;64778;47.314;8.466;2023-02-07T05:20:00;-3.00;87.30
75105;DHT22;64778;47.314;8.466;2023-02-07T05:22:32;-3.10;87.30
75105;DHT22;64778;47.314;8.466;2023-02-07T05:24:58;-3.10;87.20
75105;DHT22;64778;47.314;8.466;2023-02-07T05:27:24;-3.10;87.10
75105;DHT22;64778;47.314;8.466;2023-02-07T05:29:52;-3.10;87.10
75105;DHT22;64778;47.314;8.466;2023-02-07T05:32:17;-3.10;87.00
75105;DHT22;64778;47.314;8.466;2023-02-07T05:35:02;-3.10;87.00
75105;DHT22;64778;47.314;8.466;2023-02-07T05:37:27;-3.10;87.20
75105;DHT22;64778;47.314;8.466;2023-02-07T05:39:55;-3.00;87.20
75105;DHT22;64778;47.314;8.466;2023-02-07T05:42:21;-3.10;87.20
75105;DHT22;64778;47.314;8.466;2023-02-07T05:44:47;-3.00;87.20
75105;DHT22;64778;47.314;8.466;2023-02-07T05:47:19;-3.10;87.10
75105;DHT22;64778;47.314;8.466;2023-02-07T05:49:44;-3.00;87.10
75105;DHT22;64778;47.314;8.466;2023-02-07T05:52:10;-3.10;87.20
75105;DHT22;64778;47.314;8.466;2023-02-07T05:54:35;-3.10;87.20
75105;DHT22;64778;47.314;8.466;2023-02-07T05:57:01;-3.10;87.10
75105;DHT22;64778;47.314;8.466;2023-02-07T05:59:27;-3.10;87.10
75105;DHT22;64778;47.314;8.466;2023-02-07T06:01:53;-3.10;87.40
75105;DHT22;64778;47.314;8.466;2023-02-07T06:04:23;-3.10;87.40
75105;DHT22;64778;47.314;8.466;2023-02-07T06:06:56;-3.10;87.40
75105;DHT22;64778;47.314;8.466;2023-02-07T06:09:24;-3.10;87.90
75105;DHT22;64778;47.314;8.466;2023-02-07T06:11:52;-3.20;87.60
75105;DHT22;64778;47.314;8.466;2023-02-07T06:14:19;-3.20;87.70
75105;DHT22;64778;47.314;8.466;2023-02-07T06:16:45;-3.20;87.60
75105;DHT22;64778;47.314;8.466;2023-02-07T06:19:13;-3.10;91.00
75105;DHT22;64778;47.314;8.466;2023-02-07T06:21:42;-3.00;87.60
75105;DHT22;64778;47.314;8.466;2023-02-07T06:24:12;-2.90;88.60
75105;DHT22;64778;47.314;8.466;2023-02-07T06:26:37;-2.80;87.10
75105;DHT22;64778;47.314;8.466;2023-02-07T06:29:03;-2.80;86.40
75105;DHT22;64778;47.314;8.466;2023-02-07T06:31:28;-2.80;86.00
75105;DHT22;64778;47.314;8.466;2023-02-07T06:33:54;-2.90;85.70
75105;DHT22;64778;47.314;8.466;2023-02-07T06:36:22;-2.90;86.10
75105;DHT22;64778;47.314;8.466;2023-02-07T06:38:48;-2.90;86.10
75105;DHT22;64778;47.314;8.466;2023-02-07T06:41:15;-3.00;86.60
75105;DHT22;64778;47.314;8.466;2023-02-07T06:43:43;-3.10;86.70
75105;DHT22;64778;47.314;8.466;2023-02-07T06:46:11;-3.10;86.90
75105;DHT22;64778;47.314;8.466;2023-02-07T06:48:40;-3.10;87.50
75105;DHT22;64778;47.314;8.466;2023-02-07T06:51:05;-3.20;87.40
75105;DHT22;64778;47.314;8.466;2023-02-07T06:53:31;-3.20;87.50
75105;DHT22;64778;47.314;8.466;2023-02-07T06:55:59;-3.20;87.40
75105;DHT22;64778;47.314;8.466;2023-02-07T06:58:25;-3.20;88.00
75105;DHT22;64778;47.314;8.466;2023-02-07T07:00:50;-3.20;87.70
75105;DHT22;64778;47.314;8.466;2023-02-07T07:03:16;-3.20;87.70
75105;DHT22;64778;47.314;8.466;2023-02-07T07:05:43;-3.10;87.60
75105;DHT22;64778;47.314;8.466;2023-02-07T07:08:10;-3.10;87.40
75105;DHT22;64778;47.314;8.466;2023-02-07T07:10:36;-3.10;87.60
75105;DHT22;64778;47.314;8.466;2023-02-07T07:13:09;-3.10;87.60
75105;DHT22;64778;47.314;8.466;2023-02-07T07:15:35;-3.10;87.50
75105;DHT22;64778;47.314;8.466;2023-02-07T07:18:02;-3.00;87.50
75105;DHT22;64778;47.314;8.466;2023-02-07T07:20:28;-3.00;87.10
75105;DHT22;64778;47.314;8.466;2023-02-07T07:22:54;-2.90;86.90
75105;DHT22;64778;47.314;8.466;2023-02-07T07:25:19;-2.90;86.80
75105;DHT22;64778;47.314;8.466;2023-02-07T07:27:45;-2.90;86.90
75105;DHT22;64778;47.314;8.466;2023-02-07T07:30:11;-2.90;87.00
75105;DHT22;64778;47.314;8.466;2023-02-07T07:32:39;-2.80;86.50
75105;DHT22;64778;47.314;8.466;2023-02-07T07:35:05;-2.70;86.40
75105;DHT22;64778;47.314;8.466;2023-02-07T07:37:33;-2.60;85.70
75105;DHT22;64778;47.314;8.466;2023-02-07T07:39:59;-2.50;85.50
75105;DHT22;64778;47.314;8.466;2023-02-07T07:42:25;-2.40;85.50
75105;DHT22;64778;47.314;8.466;2023-02-07T07:44:53;-2.30;85.10
75105;DHT22;64778;47.314;8.466;2023-02-07T07:47:21;-2.20;84.90
75105;DHT22;64778;47.314;8.466;2023-02-07T07:49:47;-2.20;84.50
75105;DHT22;64778;47.314;8.466;2023-02-07T07:52:12;-2.10;85.30
75105;DHT22;64778;47.314;8.466;2023-02-07T07:54:38;-2.00;85.00
75105;DHT22;64778;47.314;8.466;2023-02-07T07:57:03;-1.90;84.40
75105;DHT22;64778;47.314;8.466;2023-02-07T07:59:29;-1.80;84.00
75105;DHT22;64778;47.314;8.466;2023-02-07T08:02:00;-1.60;83.00
75105;DHT22;64778;47.314;8.466;2023-02-07T08:04:30;-1.50;81.80
75105;DHT22;64778;47.314;8.466;2023-02-07T08:06:55;-1.80;82.80
75105;DHT22;64778;47.314;8.466;2023-02-07T08:09:22;-1.80;83.30
75105;DHT22;64778;47.314;8.466;2023-02-07T08:11:47;-1.70;82.70
75105;DHT22;64778;47.314;8.466;2023-02-07T08:14:13;-1.70;83.00
75105;DHT22;64778;47.314;8.466;2023-02-07T08:16:38;-1.80;83.10
75105;DHT22;64778;47.314;8.466;2023-02-07T08:19:06;-1.80;82.60
75105;DHT22;64778;47.314;8.466;2023-02-07T08:21:34;-1.80;83.00
75105;DHT22;64778;47.314;8.466;2023-02-07T08:24:02;-1.80;83.30
75105;DHT22;64778;47.314;8.466;2023-02-07T08:26:31;-1.70;82.80
75105;DHT22;64778;47.314;8.466;2023-02-07T08:28:56;-1.60;82.50
75105;DHT22;64778;47.314;8.466;2023-02-07T08:31:22;-1.40;82.00
75105;DHT22;64778;47.314;8.466;2023-02-07T08:33:47;-1.60;81.70
75105;DHT22;64778;47.314;8.466;2023-02-07T08:36:13;-1.50;82.10
75105;DHT22;64778;47.314;8.466;2023-02-07T08:38:41;-1.40;81.20
75105;DHT22;64778;47.314;8.466;2023-02-07T08:41:07;-1.40;81.20
75105;DHT22;64778;47.314;8.466;2023-02-07T08:43:33;-1.40;81.50
75105;DHT22;64778;47.314;8.466;2023-02-07T08:45:58;-1.30;81.90
75105;DHT22;64778;47.314;8.466;2023-02-07T08:48:25;-1.30;80.80
75105;DHT22;64778;47.314;8.466;2023-02-07T08:50:51;-1.20;81.30
75105;DHT22;64778;47.314;8.466;2023-02-07T08:53:21;-0.90;80.20
75105;DHT22;64778;47.314;8.466;2023-02-07T08:55:47;-0.70;79.50
75105;DHT22;64778;47.314;8.466;2023-02-07T08:58:15;-0.50;78.70
75105;DHT22;64778;47.314;8.466;2023-02-07T09:00:40;-0.40;77.50
75105;DHT22;64778;47.314;8.466;2023-02-07T09:03:08;-0.40;76.60
75105;DHT22;64778;47.314;8.466;2023-02-07T09:05:34;-0.20;76.40
75105;DHT22;64778;47.314;8.466;2023-02-07T09:08:01;-0.40;75.00
75105;DHT22;64778;47.314;8.466;2023-02-07T09:10:27;-0.30;75.70
75105;DHT22;64778;47.314;8.466;2023-02-07T09:12:52;-0.20;75.70
75105;DHT22;64778;47.314;8.466;2023-02-07T09:15:20;0.00;75.00
75105;DHT22;64778;47.314;8.466;2023-02-07T09:17:48;0.00;75.20
75105;DHT22;64778;47.314;8.466;2023-02-07T09:22:40;0.10;74.10
75105;DHT22;64778;47.314;8.466;2023-02-07T09:25:24;0.30;73.50
75105;DHT22;64778;47.314;8.466;2023-02-07T09:27:52;0.50;73.90
75105;DHT22;64778;47.314;8.466;2023-02-07T09:30:20;0.40;73.70
75105;DHT22;64778;47.314;8.466;2023-02-07T09:32:46;0.30;73.50
75105;DHT22;64778;47.314;8.466;2023-02-07T09:35:14;0.50;74.20
75105;DHT22;64778;47.314;8.466;2023-02-07T09:37:39;0.80;73.30
75105;DHT22;64778;47.314;8.466;2023-02-07T09:40:08;0.90;73.30
75105;DHT22;64778;47.314;8.466;2023-02-07T09:42:56;1.00;71.60
75105;DHT22;64778;47.314;8.466;2023-02-07T09:45:27;1.40;70.90
75105;DHT22;64778;47.314;8.466;2023-02-07T09:48:01;1.50;70.30
75105;DHT22;64778;47.314;8.466;2023-02-07T09:50:35;1.70;69.60
75105;DHT22;64778;47.314;8.466;2023-02-07T09:53:11;1.60;67.40
75105;DHT22;64778;47.314;8.466;2023-02-07T09:55:48;1.90;68.80
75105;DHT22;64778;47.314;8.466;2023-02-07T09:58:18;2.00;67.10
75105;DHT22;64778;47.314;8.466;2023-02-07T10:00:57;1.80;68.00
75105;DHT22;64778;47.314;8.466;2023-02-07T10:03:24;1.80;66.30
75105;DHT22;64778;47.314;8.466;2023-02-07T10:06:05;1.90;67.10
75105;DHT22;64778;47.314;8.466;2023-02-07T10:08:34;2.10;65.80
75105;DHT22;64778;47.314;8.466;2023-02-07T10:14:04;2.10;67.70
75105;DHT22;64778;47.314;8.466;2023-02-07T10:22:23;2.90;66.00
75105;DHT22;64778;47.314;8.466;2023-02-07T10:27:47;2.90;65.70
75105;DHT22;64778;47.314;8.466;2023-02-07T10:30:17;3.10;65.30
75105;DHT22;64778;47.314;8.466;2023-02-07T10:32:48;3.00;65.40
75105;DHT22;64778;47.314;8.466;2023-02-07T10:35:34;3.10;63.60
75105;DHT22;64778;47.314;8.466;2023-02-07T10:38:02;3.10;64.90
75105;DHT22;64778;47.314;8.466;2023-02-07T10:40:52;3.30;63.80
75105;DHT22;64778;47.314;8.466;2023-02-07T10:46:03;3.80;61.50
75105;DHT22;64778;47.314;8.466;2023-02-07T10:48:36;3.70;62.30
75105;DHT22;64778;47.314;8.466;2023-02-07T10:53:47;4.40;59.00
75105;DHT22;64778;47.314;8.466;2023-02-07T10:56:28;4.60;59.30
75105;DHT22;64778;47.314;8.466;2023-02-07T10:58:56;4.30;59.60
75105;DHT22;64778;47.314;8.466;2023-02-07T11:01:27;4.50;58.50
75105;DHT22;64778;47.314;8.466;2023-02-07T11:03:58;4.40;58.70
75105;DHT22;64778;47.314;8.466;2023-02-07T11:09:11;5.10;56.40
75105;DHT22;64778;47.314;8.466;2023-02-07T11:11:52;4.80;56.50
75105;DHT22;64778;47.314;8.466;2023-02-07T11:14:23;5.10;56.50
75105;DHT22;64778;47.314;8.466;2023-02-07T11:16:57;5.50;55.70
75105;DHT22;64778;47.314;8.466;2023-02-07T11:19:28;5.50;52.70
75105;DHT22;64778;47.314;8.466;2023-02-07T11:22:08;5.40;54.90
75105;DHT22;64778;47.314;8.466;2023-02-07T11:24:39;5.00;54.20
75105;DHT22;64778;47.314;8.466;2023-02-07T11:27:15;5.70;54.70
75105;DHT22;64778;47.314;8.466;2023-02-07T11:29:49;6.20;53.50
75105;DHT22;64778;47.314;8.466;2023-02-07T11:32:16;6.60;51.20
75105;DHT22;64778;47.314;8.466;2023-02-07T11:39:43;6.80;50.70
75105;DHT22;64778;47.314;8.466;2023-02-07T11:42:16;7.20;49.30
75105;DHT22;64778;47.314;8.466;2023-02-07T11:44:44;7.70;49.40
75105;DHT22;64778;47.314;8.466;2023-02-07T11:47:43;8.10;48.20
75105;DHT22;64778;47.314;8.466;2023-02-07T11:50:05;8.40;47.60
75105;DHT22;64778;47.314;8.466;2023-02-07T11:52:32;8.40;47.70
75105;DHT22;64778;47.314;8.466;2023-02-07T11:55:02;8.30;47.20
75105;DHT22;64778;47.314;8.466;2023-02-07T11:57:30;8.90;46.00
75105;DHT22;64778;47.314;8.466;2023-02-07T12:00:02;8.50;44.80
75105;DHT22;64778;47.314;8.466;2023-02-07T12:02:33;8.50;45.40
75105;DHT22;64778;47.314;8.466;2023-02-07T12:06:00;8.80;45.90
75105;DHT22;64778;47.314;8.466;2023-02-07T12:08:02;7.80;46.70
75105;DHT22;64778;47.314;8.466;2023-02-07T12:10:30;8.40;47.40
75105;DHT22;64778;47.314;8.466;2023-02-07T12:15:34;8.70;45.10
75105;DHT22;64778;47.314;8.466;2023-02-07T12:18:06;9.40;44.80
75105;DHT22;64778;47.314;8.466;2023-02-07T12:20:40;10.20;43.40
75105;DHT22;64778;47.314;8.466;2023-02-07T12:25:41;10.80;40.80
75105;DHT22;64778;47.314;8.466;2023-02-07T12:28:13;10.60;41.70
75105;DHT22;64778;47.314;8.466;2023-02-07T12:30:42;11.50;40.70
75105;DHT22;64778;47.314;8.466;2023-02-07T12:33:17;10.90;41.70
75105;DHT22;64778;47.314;8.466;2023-02-07T12:38:37;11.50;39.70
75105;DHT22;64778;47.314;8.466;2023-02-07T12:41:29;12.20;36.80
75105;DHT22;64778;47.314;8.466;2023-02-07T12:46:28;13.90;35.90
75105;DHT22;64778;47.314;8.466;2023-02-07T12:51:28;13.80;35.10
75105;DHT22;64778;47.314;8.466;2023-02-07T12:54:02;14.30;33.70
75105;DHT22;64778;47.314;8.466;2023-02-07T12:56:48;15.20;32.70
75105;DHT22;64778;47.314;8.466;2023-02-07T13:01:46;13.90;34.30
75105;DHT22;64778;47.314;8.466;2023-02-07T13:25:01;17.50;29.80
75105;DHT22;64778;47.314;8.466;2023-02-07T13:27:27;18.40;29.50
75105;DHT22;64778;47.314;8.466;2023-02-07T13:29:53;18.10;29.10
75105;DHT22;64778;47.314;8.466;2023-02-07T13:32:20;17.80;29.10
75105;DHT22;64778;47.314;8.466;2023-02-07T13:34:52;17.70;29.40
75105;DHT22;64778;47.314;8.466;2023-02-07T13:37:34;18.30;29.50
75105;DHT22;64778;47.314;8.466;2023-02-07T13:43:05;19.00;28.30
75105;DHT22;64778;47.314;8.466;2023-02-07T13:56:33;20.10;27.20
75105;DHT22;64778;47.314;8.466;2023-02-07T14:02:13;20.60;26.60
75105;DHT22;64778;47.314;8.466;2023-02-07T14:05:18;19.50;27.10
75105;DHT22;64778;47.314;8.466;2023-02-07T14:07:56;21.00;27.00
75105;DHT22;64778;47.314;8.466;2023-02-07T14:10:38;20.70;26.60
75105;DHT22;64778;47.314;8.466;2023-02-07T14:13:18;21.80;26.40
75105;DHT22;64778;47.314;8.466;2023-02-07T14:18:41;20.50;26.60
75105;DHT22;64778;47.314;8.466;2023-02-07T14:31:54;19.40;28.00
75105;DHT22;64778;47.314;8.466;2023-02-07T14:34:27;19.20;27.80
75105;DHT22;64778;47.314;8.466;2023-02-07T14:36:57;19.50;27.60
75105;DHT22;64778;47.314;8.466;2023-02-07T14:39:29;20.70;27.00
75105;DHT22;64778;47.314;8.466;2023-02-07T14:42:16;20.90;26.80
75105;DHT22;64778;47.314;8.466;2023-02-07T14:44:44;21.40;26.30
75105;DHT22;64778;47.314;8.466;2023-02-07T14:47:25;22.40;25.70
75105;DHT22;64778;47.314;8.466;2023-02-07T14:49:55;23.20;25.10
75105;DHT22;64778;47.314;8.466;2023-02-07T14:52:32;23.70;24.60
75105;DHT22;64778;47.314;8.466;2023-02-07T14:55:20;23.80;24.60
75105;DHT22;64778;47.314;8.466;2023-02-07T14:58:00;23.10;25.10
75105;DHT22;64778;47.314;8.466;2023-02-07T15:00:36;23.00;25.00
75105;DHT22;64778;47.314;8.466;2023-02-07T15:03:12;23.20;24.90
75105;DHT22;64778;47.314;8.466;2023-02-07T15:05:47;22.50;25.30
75105;DHT22;64778;47.314;8.466;2023-02-07T15:08:18;20.80;26.00
75105;DHT22;64778;47.314;8.466;2023-02-07T15:11:05;21.80;25.90
75105;DHT22;64778;47.314;8.466;2023-02-07T15:16:12;22.00;25.90
75105;DHT22;64778;47.314;8.466;2023-02-07T15:24:03;19.70;27.10
75105;DHT22;64778;47.314;8.466;2023-02-07T15:26:30;20.10;27.10
75105;DHT22;64778;47.314;8.466;2023-02-07T15:29:00;19.10;27.40
75105;DHT22;64778;47.314;8.466;2023-02-07T15:31:26;18.30;27.60
75105;DHT22;64778;47.314;8.466;2023-02-07T15:33:55;18.40;28.20
75105;DHT22;64778;47.314;8.466;2023-02-07T15:38:55;18.40;28.70
75105;DHT22;64778;47.314;8.466;2023-02-07T15:41:24;18.40;28.00
75105;DHT22;64778;47.314;8.466;2023-02-07T15:46:25;17.30;29.00
75105;DHT22;64778;47.314;8.466;2023-02-07T15:48:53;17.50;29.00
75105;DHT22;64778;47.314;8.466;2023-02-07T15:51:28;18.10;28.70
75105;DHT22;64778;47.314;8.466;2023-02-07T15:53:59;17.40;29.30
75105;DHT22;64778;47.314;8.466;2023-02-07T15:56:26;17.20;28.90
75105;DHT22;64778;47.314;8.466;2023-02-07T15:58:58;15.40;30.10
75105;DHT22;64778;47.314;8.466;2023-02-07T16:01:30;14.40;31.60
75105;DHT22;64778;47.314;8.466;2023-02-07T16:03:58;12.70;34.10
75105;DHT22;64778;47.314;8.466;2023-02-07T16:06:27;11.70;35.00
75105;DHT22;64778;47.314;8.466;2023-02-07T16:08:54;10.50;36.80
75105;DHT22;64778;47.314;8.466;2023-02-07T16:16:37;7.40;43.70
75105;DHT22;64778;47.314;8.466;2023-02-07T16:21:33;6.20;47.00
75105;DHT22;64778;47.314;8.466;2023-02-07T16:24:14;5.90;47.40
75105;DHT22;64778;47.314;8.466;2023-02-07T16:26:43;5.50;48.80
75105;DHT22;64778;47.314;8.466;2023-02-07T16:29:17;5.20;49.70
75105;DHT22;64778;47.314;8.466;2023-02-07T16:31:43;5.00;50.60
75105;DHT22;64778;47.314;8.466;2023-02-07T16:34:13;4.80;51.60
75105;DHT22;64778;47.314;8.466;2023-02-07T16:36:39;4.50;52.10
75105;DHT22;64778;47.314;8.466;2023-02-07T16:39:06;4.20;53.50
75105;DHT22;64778;47.314;8.466;2023-02-07T16:41:33;4.00;54.50
75105;DHT22;64778;47.314;8.466;2023-02-07T16:44:05;4.00;55.10
75105;DHT22;64778;47.314;8.466;2023-02-07T16:46:33;4.00;55.30
75105;DHT22;64778;47.314;8.466;2023-02-07T16:48:59;3.80;55.70
75105;DHT22;64778;47.314;8.466;2023-02-07T16:51:25;3.70;56.20
75105;DHT22;64778;47.314;8.466;2023-02-07T16:53:51;3.60;56.90
75105;DHT22;64778;47.314;8.466;2023-02-07T16:56:21;3.50;57.60
75105;DHT22;64778;47.314;8.466;2023-02-07T16:58:47;3.50;58.30
75105;DHT22;64778;47.314;8.466;2023-02-07T17:01:17;3.50;58.30
75105;DHT22;64778;47.314;8.466;2023-02-07T17:03:43;3.40;58.90
75105;DHT22;64778;47.314;8.466;2023-02-07T17:06:11;3.30;59.90
75105;DHT22;64778;47.314;8.466;2023-02-07T17:08:37;3.20;60.00
75105;DHT22;64778;47.314;8.466;2023-02-07T17:11:02;3.20;60.00
75105;DHT22;64778;47.314;8.466;2023-02-07T17:13:31;3.10;60.60
75105;DHT22;64778;47.314;8.466;2023-02-07T17:16:00;2.90;61.30
75105;DHT22;64778;47.314;8.466;2023-02-07T17:18:28;2.60;62.50
75105;DHT22;64778;47.314;8.466;2023-02-07T17:20:53;2.50;63.30
75105;DHT22;64778;47.314;8.466;2023-02-07T17:23:19;2.40;64.00
75105;DHT22;64778;47.314;8.466;2023-02-07T17:25:46;2.30;64.90
75105;DHT22;64778;47.314;8.466;2023-02-07T17:28:14;2.20;65.00
75105;DHT22;64778;47.314;8.466;2023-02-07T17:30:41;2.20;65.30
75105;DHT22;64778;47.314;8.466;2023-02-07T17:33:09;2.00;65.80
75105;DHT22;64778;47.314;8.466;2023-02-07T17:35:38;2.00;66.20
75105;DHT22;64778;47.314;8.466;2023-02-07T17:38:04;1.90;66.70
75105;DHT22;64778;47.314;8.466;2023-02-07T17:40:33;1.80;66.80
75105;DHT22;64778;47.314;8.466;2023-02-07T17:43:02;1.80;67.10
75105;DHT22;64778;47.314;8.466;2023-02-07T17:45:30;1.80;67.40
75105;DHT22;64778;47.314;8.466;2023-02-07T17:47:56;1.90;67.50
75105;DHT22;64778;47.314;8.466;2023-02-07T17:52:50;1.50;68.30
75105;DHT22;64778;47.314;8.466;2023-02-07T17:55:18;1.50;68.60
75105;DHT22;64778;47.314;8.466;2023-02-07T17:57:44;1.40;69.20
75105;DHT22;64778;47.314;8.466;2023-02-07T18:00:20;1.50;69.00
75105;DHT22;64778;47.314;8.466;2023-02-07T18:02:48;1.30;69.70
75105;DHT22;64778;47.314;8.466;2023-02-07T18:05:16;1.40;70.00
75105;DHT22;64778;47.314;8.466;2023-02-07T18:07:43;1.10;71.10
75105;DHT22;64778;47.314;8.466;2023-02-07T18:10:15;1.00;72.10
75105;DHT22;64778;47.314;8.466;2023-02-07T18:12:44;0.90;72.20
75105;DHT22;64778;47.314;8.466;2023-02-07T18:15:10;1.00;72.10
75105;DHT22;64778;47.314;8.466;2023-02-07T18:17:37;1.00;72.30
75105;DHT22;64778;47.314;8.466;2023-02-07T18:20:03;0.90;72.60
75105;DHT22;64778;47.314;8.466;2023-02-07T18:24:58;1.00;72.50
75105;DHT22;64778;47.314;8.466;2023-02-07T18:27:26;1.10;72.20
75105;DHT22;64778;47.314;8.466;2023-02-07T18:29:54;1.00;72.40